Time;durP1;ratioP1;P1;durP2;ratioP2;P2;SDS_P1;SDS_P2;PMS_P1;PMS_P2;Temp;Humidity;BMP_temperature;BMP_pressure;BME280_temperature;BME280_humidity;BME280_pressure;Samples;Min_cycle;Max_cycle;Signal;HPM_P1;HPM_P2
2022/10/18 00:00:31;;;;;;;;;;;;;;;15.13;100.00;102509.88;5038752;28;19925;-59
2022/10/18 00:02:56;;;;;;;;;;;;;;;15.14;100.00;102510.72;5027497;28;19917;-59
2022/10/18 00:05:21;;;;;;;;;;;;;;;15.14;100.00;102511.56;5038906;28;19921;-59
2022/10/18 00:07:46;;;;;;;;;;;;;;;15.14;100.00;102508.88;5034235;28;19918;-59
2022/10/18 00:10:12;;;;;;;;;;;;;;;15.15;100.00;102505.19;5034611;28;19921;-59
2022/10/18 00:12:37;;;;;;;;;;;;;;;15.18;100.00;102512.06;5036133;28;20421;-59
2022/10/18 00:15:03;;;;;;;;;;;;;;;15.18;100.00;102510.22;5035986;28;19925;-59
2022/10/18 00:17:28;;;;;;;;;;;;;;;15.18;100.00;102504.88;5034510;28;20402;-59
2022/10/18 00:19:54;;;;;;;;;;;;;;;15.18;100.00;102504.88;5036647;28;19913;-58
2022/10/18 00:22:19;;;;;;;;;;;;;;;15.18;100.00;102499.53;5031920;28;19924;-59
2022/10/18 00:24:44;;;;;;;;;;;;;;;15.18;100.00;102502.19;5033674;28;19941;-59
2022/10/18 00:27:09;;;;;;;;;;;;;;;15.18;100.00;102496.84;5031904;28;20024;-59
2022/10/18 00:29:34;;;;;;;;;;;;;;;15.16;100.00;102498.84;5031481;28;19913;-59
2022/10/18 00:32:00;;;;;;;;;;;;;;;15.18;100.00;102506.72;5032657;28;20007;-59
2022/10/18 00:34:25;;;;;;;;;;;;;;;15.17;100.00;102505.03;5038526;28;19913;-59
2022/10/18 00:36:50;;;;;;;;;;;;;;;15.16;100.00;102501.53;5034029;28;20320;-59
2022/10/18 00:39:16;;;;;;;;;;;;;;;15.16;100.00;102508.72;5029667;28;19933;-59
2022/10/18 00:41:42;;;;;;;;;;;;;;;15.15;100.00;102502.53;5031098;28;19920;-59
2022/10/18 00:44:10;;;;;;;;;;;;;;;15.16;100.00;102498.00;5041093;28;19924;-59
2022/10/18 00:46:36;;;;;;;;;;;;;;;15.13;100.00;102495.66;5032616;28;19943;-59
2022/10/18 00:49:07;;;;;;;;;;;;;;;15.10;100.00;102496.81;5029759;28;19921;-57
2022/10/18 00:51:38;;;;;;;;;;;;;;;15.10;100.00;102501.34;5035151;28;20000;-59
2022/10/18 00:54:04;;;;;;;;;;;;;;;15.10;100.00;102499.50;5032156;28;20011;-59
2022/10/18 00:56:29;;;;;;;;;;;;;;;15.10;100.00;102504.84;5035881;28;19948;-59
2022/10/18 00:58:54;;;;;;;;;;;;;;;15.10;100.00;102514.72;5031433;28;19913;-59
2022/10/18 01:01:19;;;;;;;;;;;;;;;15.06;100.00;102510.69;5034217;28;19924;-59
2022/10/18 01:03:45;;;;;;;;;;;;;;;15.00;100.00;102514.81;5026202;28;19921;-59
2022/10/18 01:06:10;;;;;;;;;;;;;;;14.96;100.00;102518.78;5028201;28;19928;-59
2022/10/18 01:08:44;;;;;;;;;;;;;;;14.94;100.00;102519.97;5029630;28;19916;-59
2022/10/18 01:11:28;;;;;;;;;;;;;;;14.92;100.00;102519.28;5023697;28;20060;-58
2022/10/18 01:13:59;;;;;;;;;;;;;;;14.91;100.00;102521.13;5028845;28;19917;-58
2022/10/18 01:16:30;;;;;;;;;;;;;;;14.91;100.00;102520.28;5030603;28;20039;-59
2022/10/18 01:18:59;;;;;;;;;;;;;;;14.91;100.00;102525.63;5034515;28;20384;-59
2022/10/18 01:21:31;;;;;;;;;;;;;;;14.92;100.00;102527.31;5030258;28;19917;-59
2022/10/18 01:24:15;;;;;;;;;;;;;;;14.94;100.00;102528.81;5032911;28;19952;-57
2022/10/18 01:27:04;;;;;;;;;;;;;;;14.95;100.00;102519.78;5031913;28;19948;-59
2022/10/18 01:29:29;;;;;;;;;;;;;;;14.95;100.00;102519.78;5023448;28;19971;-59
2022/10/18 01:32:00;;;;;;;;;;;;;;;14.95;100.00;102521.63;5029050;28;20024;-57
2022/10/18 01:34:27;;;;;;;;;;;;;;;14.94;100.00;102523.47;5030847;28;19963;-58
2022/10/18 01:36:54;;;;;;;;;;;;;;;14.95;100.00;102524.31;5028489;28;19971;-59
2022/10/18 01:39:22;;;;;;;;;;;;;;;14.96;100.00;102520.63;5028236;28;19925;-59
2022/10/18 01:41:50;;;;;;;;;;;;;;;14.97;100.00;102525.00;5028952;28;19917;-59
2022/10/18 01:44:18;;;;;;;;;;;;;;;14.96;100.00;102515.28;5024687;28;19921;-59
2022/10/18 01:46:44;;;;;;;;;;;;;;;14.93;100.00;102513.75;5040464;28;19928;-59
2022/10/18 01:49:09;;;;;;;;;;;;;;;14.90;100.00;102523.94;5026819;28;19921;-59
2022/10/18 01:51:34;;;;;;;;;;;;;;;14.88;100.00;102526.78;5030651;28;19917;-59
2022/10/18 01:54:00;;;;;;;;;;;;;;;14.86;100.00;102529.63;5033029;28;19944;-59
2022/10/18 01:56:28;;;;;;;;;;;;;;;14.87;100.00;102533.13;5037772;28;19917;-59
2022/10/18 01:59:02;;;;;;;;;;;;;;;14.87;100.00;102533.97;5033018;28;20399;-59
2022/10/18 02:01:48;;;;;;;;;;;;;;;14.87;100.00;102525.94;5023061;28;20594;-59
2022/10/18 02:04:21;;;;;;;;;;;;;;;14.87;100.00;102525.94;5014124;28;19983;-59
2022/10/18 02:06:47;;;;;;;;;;;;;;;14.86;100.00;102524.25;5030755;28;20008;-59
2022/10/18 02:09:16;;;;;;;;;;;;;;;14.84;100.00;102525.41;5029320;28;20057;-59
2022/10/18 02:11:43;;;;;;;;;;;;;;;14.83;100.00;102526.41;5030295;28;19990;-59
2022/10/18 02:14:10;;;;;;;;;;;;;;;14.83;100.00;102526.41;5026080;28;19920;-59
2022/10/18 02:16:44;;;;;;;;;;;;;;;14.80;100.00;102532.94;5028957;28;20347;-59
2022/10/18 02:19:13;;;;;;;;;;;;;;;14.72;100.00;102524.81;5028621;28;19928;-59
2022/10/18 02:21:39;;;;;;;;;;;;;;;14.70;100.00;102523.31;5033251;28;20008;-59
2022/10/18 02:24:05;;;;;;;;;;;;;;;14.69;100.00;102519.78;5029632;28;20004;-59
2022/10/18 02:26:30;;;;;;;;;;;;;;;14.71;100.00;102519.63;5032158;28;20007;-59
2022/10/18 02:28:56;;;;;;;;;;;;;;;14.71;100.00;102517.78;5026659;28;20456;-59
2022/10/18 02:31:26;;;;;;;;;;;;;;;14.72;100.00;102521.31;5026056;28;19917;-58
2022/10/18 02:33:54;;;;;;;;;;;;;;;14.70;100.00;102521.47;5029439;28;19983;-58
2022/10/18 02:36:26;;;;;;;;;;;;;;;14.66;100.00;102521.94;5041763;28;20023;-59
2022/10/18 02:38:53;;;;;;;;;;;;;;;14.63;100.00;102538.31;5027658;28;19921;-58
2022/10/18 02:41:22;;;;;;;;;;;;;;;14.60;100.00;102530.59;5027777;28;19917;-59
2022/10/18 02:43:48;;;;;;;;;;;;;;;14.57;100.00;102540.59;5035872;28;19917;-59
2022/10/18 02:46:13;;;;;;;;;;;;;;;14.54;100.00;102535.56;5027388;28;19925;-59
2022/10/18 02:48:38;;;;;;;;;;;;;;;14.52;100.00;102534.88;5029609;28;20376;-59
2022/10/18 02:51:03;;;;;;;;;;;;;;;14.50;100.00;102533.38;5027813;28;19917;-59
2022/10/18 02:53:28;;;;;;;;;;;;;;;14.47;100.00;102539.88;5030283;28;20365;-59
2022/10/18 02:55:54;;;;;;;;;;;;;;;14.47;100.00;102537.19;5034983;28;20335;-58
2022/10/18 02:58:19;;;;;;;;;;;;;;;14.49;100.00;102535.19;5026874;28;19931;-59
2022/10/18 03:00:44;;;;;;;;;;;;;;;14.49;100.00;102537.88;5030369;28;19921;-59
2022/10/18 03:03:09;;;;;;;;;;;;;;;14.49;100.00;102542.38;5032248;28;19944;-59
2022/10/18 03:05:34;;;;;;;;;;;;;;;14.48;100.00;102546.06;5038020;28;19918;-58
2022/10/18 03:07:59;;;;;;;;;;;;;;;14.46;100.00;102548.03;5034825;28;19995;-59
2022/10/18 03:10:24;;;;;;;;;;;;;;;14.44;100.00;102552.66;5038824;28;19913;-58
2022/10/18 03:12:50;;;;;;;;;;;;;;;14.45;100.00;102562.38;5034428;28;20433;-59
2022/10/18 03:15:15;;;;;;;;;;;;;;;14.45;100.00;102546.34;5038856;28;19999;-59
2022/10/18 03:17:40;;;;;;;;;;;;;;;14.44;100.00;102542.81;5025411;28;19917;-58
2022/10/18 03:20:06;;;;;;;;;;;;;;;14.41;100.00;102542.25;5037670;28;19971;-57
2022/10/18 03:22:31;;;;;;;;;;;;;;;14.38;100.00;102551.44;5035628;28;19931;-59
2022/10/18 03:24:56;;;;;;;;;;;;;;;14.39;100.00;102546.91;5036144;28;20274;-59
2022/10/18 03:27:21;;;;;;;;;;;;;;;14.39;100.00;102547.75;5031596;28;19921;-58
2022/10/18 03:29:46;;;;;;;;;;;;;;;14.39;100.00;102550.44;5035175;28;20470;-59
2022/10/18 03:32:12;;;;;;;;;;;;;;;14.41;100.00;102552.94;5031034;28;19920;-59
2022/10/18 03:34:37;;;;;;;;;;;;;;;14.38;100.00;102555.94;5032045;28;19991;-58
2022/10/18 03:37:02;;;;;;;;;;;;;;;14.36;100.00;102548.06;5038871;28;19924;-59
2022/10/18 03:39:27;;;;;;;;;;;;;;;14.35;100.00;102548.22;5030226;28;20003;-59
2022/10/18 03:41:52;;;;;;;;;;;;;;;14.35;100.00;102551.75;5030814;28;19967;-59
2022/10/18 03:44:17;;;;;;;;;;;;;;;14.38;100.00;102550.59;5032379;28;20032;-59
2022/10/18 03:46:43;;;;;;;;;;;;;;;14.40;100.00;102545.94;5034833;28;20292;-59
2022/10/18 03:49:08;;;;;;;;;;;;;;;14.39;100.00;102544.25;5033344;28;20434;-58
2022/10/18 03:51:33;;;;;;;;;;;;;;;14.36;100.00;102539.22;5035562;28;19921;-59
2022/10/18 03:53:59;;;;;;;;;;;;;;;14.35;100.00;102540.22;5031405;28;19913;-59
2022/10/18 03:56:24;;;;;;;;;;;;;;;14.36;100.00;102540.06;5035661;28;20467;-58
2022/10/18 03:58:49;;;;;;;;;;;;;;;14.36;100.00;102537.38;5036260;28;19916;-59
2022/10/18 04:01:15;;;;;;;;;;;;;;;14.35;100.00;102525.00;5029384;28;19917;-59
2022/10/18 04:03:40;;;;;;;;;;;;;;;14.36;100.00;102531.19;5036291;28;19913;-59
2022/10/18 04:06:06;;;;;;;;;;;;;;;14.34;100.00;102541.19;5031029;28;19917;-58
2022/10/18 04:08:31;;;;;;;;;;;;;;;14.33;100.00;102527.00;5033741;28;19987;-59
2022/10/18 04:10:57;;;;;;;;;;;;;;;14.34;100.00;102530.50;5030850;28;19964;-59
2022/10/18 04:13:22;;;;;;;;;;;;;;;14.35;100.00;102517.00;5036391;28;19921;-59
2022/10/18 04:15:47;;;;;;;;;;;;;;;14.37;100.00;102531.03;5036667;28;19913;-59
2022/10/18 04:18:12;;;;;;;;;;;;;;;14.38;100.00;102535.38;5031492;28;19920;-59
2022/10/18 04:20:37;;;;;;;;;;;;;;;14.40;100.00;102538.75;5030855;28;20000;-58
2022/10/18 04:23:02;;;;;;;;;;;;;;;14.40;100.00;102549.44;5030833;28;19928;-58
2022/10/18 04:25:28;;;;;;;;;;;;;;;14.41;100.00;102547.59;5035740;28;19964;-58
2022/10/18 04:27:53;;;;;;;;;;;;;;;14.42;100.00;102541.25;5035298;28;20357;-59
2022/10/18 04:30:19;;;;;;;;;;;;;;;14.41;100.00;102545.78;5030528;28;23207;-60
2022/10/18 04:32:44;;;;;;;;;;;;;;;14.37;100.00;102547.06;5034623;28;20013;-59
2022/10/18 04:35:10;;;;;;;;;;;;;;;14.32;100.00;102553.88;5031565;28;19936;-59
2022/10/18 04:37:35;;;;;;;;;;;;;;;14.25;100.00;102541.13;5030172;28;19940;-59
2022/10/18 04:40:00;;;;;;;;;;;;;;;14.20;100.00;102547.94;5032464;28;20378;-59
2022/10/18 04:42:25;;;;;;;;;;;;;;;14.16;100.00;102551.88;5030443;28;20365;-59
2022/10/18 04:44:51;;;;;;;;;;;;;;;14.15;100.00;102558.22;5036207;28;19914;-59
2022/10/18 04:47:16;;;;;;;;;;;;;;;14.14;100.00;102551.19;5036610;28;20277;-59
2022/10/18 04:49:41;;;;;;;;;;;;;;;14.10;100.00;102545.31;5022089;28;19986;-59
2022/10/18 04:52:06;;;;;;;;;;;;;;;14.07;100.00;102544.78;5029395;28;20004;-58
2022/10/18 04:54:32;;;;;;;;;;;;;;;14.04;100.00;102531.75;5031387;28;20431;-59
2022/10/18 04:56:57;;;;;;;;;;;;;;;14.01;100.00;102535.56;5030592;28;19920;-59
2022/10/18 04:59:22;;;;;;;;;;;;;;;13.99;100.00;102547.38;5027703;28;20430;-59
2022/10/18 05:01:47;;;;;;;;;;;;;;;13.95;100.00;102536.16;5030114;28;19913;-59
2022/10/18 05:04:13;;;;;;;;;;;;;;;13.92;100.00;102550.66;5028680;28;19976;-59
2022/10/18 05:06:38;;;;;;;;;;;;;;;13.90;100.00;102555.31;5028961;28;19913;-59
2022/10/18 05:09:03;;;;;;;;;;;;;;;13.88;100.00;102557.31;5031456;28;20486;-57
2022/10/18 05:11:29;;;;;;;;;;;;;;;13.85;100.00;102562.06;5037410;28;19917;-59
2022/10/18 05:13:54;;;;;;;;;;;;;;;13.82;100.00;102565.03;5037768;28;19928;-59
2022/10/18 05:16:19;;;;;;;;;;;;;;;13.76;100.00;102561.16;5030918;28;19925;-59
2022/10/18 05:18:44;;;;;;;;;;;;;;;13.71;100.00;102552.75;5034334;28;19913;-59
2022/10/18 05:21:11;;;;;;;;;;;;;;;13.67;100.00;102567.41;5030203;28;19925;-59
2022/10/18 05:23:36;;;;;;;;;;;;;;;13.64;100.00;102571.19;5035319;28;19960;-59
2022/10/18 05:26:03;;;;;;;;;;;;;;;13.62;100.00;102575.00;5033738;28;19964;-58
2022/10/18 05:28:28;;;;;;;;;;;;;;;13.62;100.00;102577.69;5032752;28;19971;-59
2022/10/18 05:30:53;;;;;;;;;;;;;;;13.61;100.00;102576.00;5028858;28;19921;-59
2022/10/18 05:33:18;;;;;;;;;;;;;;;13.60;100.00;102572.50;5028961;28;20007;-59
2022/10/18 05:35:43;;;;;;;;;;;;;;;13.58;100.00;102577.09;5028913;28;19921;-59
2022/10/18 05:38:08;;;;;;;;;;;;;;;13.57;100.00;102585.25;5024921;28;20579;-59
2022/10/18 05:40:36;;;;;;;;;;;;;;;13.56;100.00;102580.91;5029928;28;19913;-58
2022/10/18 05:43:01;;;;;;;;;;;;;;;13.53;100.00;102576.72;5026843;28;19921;-58
2022/10/18 05:45:27;;;;;;;;;;;;;;;13.53;100.00;102581.22;5033174;28;19917;-59
2022/10/18 05:47:53;;;;;;;;;;;;;;;13.50;100.00;102582.34;5035132;28;20312;-58
2022/10/18 05:50:18;;;;;;;;;;;;;;;13.47;100.00;102579.13;5034360;28;19916;-58
2022/10/18 05:52:43;;;;;;;;;;;;;;;13.43;100.00;102578.59;5031747;28;20452;-57
2022/10/18 05:55:08;;;;;;;;;;;;;;;13.44;100.00;102579.44;5033162;28;19988;-57
2022/10/18 05:57:33;;;;;;;;;;;;;;;13.41;100.00;102577.06;5028550;28;19917;-59
2022/10/18 05:59:58;;;;;;;;;;;;;;;13.37;100.00;102579.19;5025701;28;19948;-59
2022/10/18 06:02:24;;;;;;;;;;;;;;;13.32;100.00;102576.97;5028760;28;19917;-59
2022/10/18 06:04:49;;;;;;;;;;;;;;;13.31;100.00;102579.78;5036513;28;19921;-59
2022/10/18 06:07:14;;;;;;;;;;;;;;;13.29;100.00;102585.22;5028437;28;20301;-59
2022/10/18 06:09:40;;;;;;;;;;;;;;;13.29;100.00;102585.22;5030538;28;19982;-59
2022/10/18 06:12:07;;;;;;;;;;;;;;;13.30;100.00;102578.09;5027898;28;20015;-59
2022/10/18 06:14:32;;;;;;;;;;;;;;;13.28;100.00;102585.38;5034268;28;19921;-58
2022/10/18 06:16:58;;;;;;;;;;;;;;;13.22;100.00;102592.13;5027583;28;19913;-59
2022/10/18 06:19:23;;;;;;;;;;;;;;;13.20;100.00;102599.44;5032008;28;19936;-59
2022/10/18 06:21:48;;;;;;;;;;;;;;;13.19;100.00;102599.59;5031873;28;19913;-59
2022/10/18 06:24:13;;;;;;;;;;;;;;;13.17;100.00;102602.41;5022469;28;20074;-59
2022/10/18 06:26:38;;;;;;;;;;;;;;;13.15;100.00;102607.03;5018576;28;20011;-59
2022/10/18 06:29:04;;;;;;;;;;;;;;;13.13;100.00;102606.31;5022215;28;19995;-59
2022/10/18 06:31:29;;;;;;;;;;;;;;;13.12;100.00;102609.13;5025875;28;20384;-58
2022/10/18 06:33:55;;;;;;;;;;;;;;;13.12;100.00;102614.47;5023972;28;19923;-58
2022/10/18 06:36:21;;;;;;;;;;;;;;;13.10;100.00;102616.44;5028350;28;19961;-58
2022/10/18 06:38:46;;;;;;;;;;;;;;;13.09;100.00;102614.75;5027596;28;19971;-59
2022/10/18 06:41:12;;;;;;;;;;;;;;;13.10;100.00;102637.78;5031333;28;20351;-59
2022/10/18 06:43:37;;;;;;;;;;;;;;;13.08;100.00;102635.25;5029409;28;19971;-59
2022/10/18 06:46:04;;;;;;;;;;;;;;;13.08;100.00;102637.94;5037258;28;19921;-59
2022/10/18 06:48:30;;;;;;;;;;;;;;;13.11;100.00;102640.31;5029845;28;20296;-57
2022/10/18 06:50:56;;;;;;;;;;;;;;;13.16;100.00;102647.88;5028407;28;20466;-59
2022/10/18 06:53:22;;;;;;;;;;;;;;;13.16;100.00;102635.38;5031205;28;20295;-57
2022/10/18 06:55:47;;;;;;;;;;;;;;;13.15;100.00;102646.19;5030745;28;20437;-59
2022/10/18 06:58:12;;;;;;;;;;;;;;;13.12;100.00;102643.81;5029868;28;19925;-58
2022/10/18 07:00:38;;;;;;;;;;;;;;;13.13;100.00;102654.34;5029620;28;20300;-59
2022/10/18 07:03:03;;;;;;;;;;;;;;;13.15;100.00;102651.53;5031927;28;20016;-58
2022/10/18 07:05:28;;;;;;;;;;;;;;;13.13;100.00;102654.34;5031017;28;20384;-58
2022/10/18 07:07:53;;;;;;;;;;;;;;;13.13;100.00;102654.34;5031370;28;19921;-59
2022/10/18 07:10:19;;;;;;;;;;;;;;;13.15;100.00;102668.38;5026314;28;19940;-58
2022/10/18 07:12:44;;;;;;;;;;;;;;;13.18;100.00;102664.59;5026680;28;19913;-59
2022/10/18 07:15:09;;;;;;;;;;;;;;;13.19;100.00;102669.81;5024796;28;20328;-59
2022/10/18 07:17:35;;;;;;;;;;;;;;;13.21;100.00;102673.16;5028120;28;19952;-58
2022/10/18 07:20:00;;;;;;;;;;;;;;;13.25;100.00;102685.22;5026847;28;19921;-58
2022/10/18 07:22:25;;;;;;;;;;;;;;;13.31;100.00;102670.50;5031484;28;19925;-58
2022/10/18 07:24:50;;;;;;;;;;;;;;;13.37;100.00;102671.75;5031828;28;19913;-58
2022/10/18 07:27:15;;;;;;;;;;;;;;;13.40;100.00;102677.63;5031732;28;19913;-57
2022/10/18 07:29:41;;;;;;;;;;;;;;;13.46;100.00;102681.56;5030651;28;19975;-58
2022/10/18 07:32:06;;;;;;;;;;;;;;;13.50;100.00;102693.63;5031256;28;20373;-59
2022/10/18 07:34:31;;;;;;;;;;;;;;;13.54;100.00;102700.34;5033032;28;19988;-58
2022/10/18 07:36:56;;;;;;;;;;;;;;;13.58;100.00;102704.41;5037485;28;19983;-59
2022/10/18 07:39:21;;;;;;;;;;;;;;;13.62;100.00;102716.50;5029622;28;20296;-58
2022/10/18 07:41:47;;;;;;;;;;;;;;;13.67;100.00;102719.56;5031436;28;19917;-59
2022/10/18 07:44:12;;;;;;;;;;;;;;;13.69;100.00;102720.28;5026647;28;19916;-59
2022/10/18 07:46:37;;;;;;;;;;;;;;;13.73;100.00;102715.47;5029820;28;19913;-58
2022/10/18 07:49:02;;;;;;;;;;;;;;;13.78;100.00;102716.72;5031032;28;19936;-59
2022/10/18 07:51:29;;;;;;;;;;;;;;;13.82;100.00;102727.94;5036674;28;19917;-59
2022/10/18 07:53:54;;;;;;;;;;;;;;;13.86;100.00;102727.50;5031826;28;19913;-59
2022/10/18 07:56:20;;;;;;;;;;;;;;;13.91;100.00;102727.94;5037625;28;19939;-59
2022/10/18 07:58:46;;;;;;;;;;;;;;;13.96;100.00;102743.53;5027111;28;19913;-58
2022/10/18 08:01:12;;;;;;;;;;;;;;;14.01;100.00;102746.59;5029811;28;19921;-58
2022/10/18 08:03:38;;;;;;;;;;;;;;;14.05;100.00;102742.63;5030269;28;20397;-58
2022/10/18 08:06:04;;;;;;;;;;;;;;;14.09;100.00;102751.19;5029134;28;19976;-59
2022/10/18 08:08:29;;;;;;;;;;;;;;;14.12;100.00;102753.56;5020166;28;19964;-58
2022/10/18 08:10:54;;;;;;;;;;;;;;;14.16;100.00;102755.78;5019176;28;19948;-59
2022/10/18 08:13:20;;;;;;;;;;;;;;;14.21;100.00;102755.38;5026664;28;19917;-59
2022/10/18 08:15:45;;;;;;;;;;;;;;;14.23;100.00;102762.25;5029146;28;20047;-59
2022/10/18 08:18:10;;;;;;;;;;;;;;;14.27;100.00;102765.47;5035389;28;19917;-59
2022/10/18 08:20:36;;;;;;;;;;;;;;;14.30;100.00;102757.16;5029834;28;19971;-59
2022/10/18 08:23:02;;;;;;;;;;;;;;;14.32;100.00;102763.19;5031590;28;19924;-59
2022/10/18 08:25:29;;;;;;;;;;;;;;;14.35;100.00;102756.69;5029637;28;19924;-59
2022/10/18 08:27:54;;;;;;;;;;;;;;;14.37;100.00;102760.06;5021533;28;19917;-59
2022/10/18 08:30:19;;;;;;;;;;;;;;;14.38;100.00;102767.94;5023732;28;20270;-59
2022/10/18 08:32:44;;;;;;;;;;;;;;;14.37;100.00;102768.94;5030147;28;19913;-59
2022/10/18 08:35:09;;;;;;;;;;;;;;;14.38;100.00;102772.44;5035412;28;19949;-59
2022/10/18 08:37:34;;;;;;;;;;;;;;;14.36;100.00;102780.59;5025474;28;19925;-57
2022/10/18 08:40:00;;;;;;;;;;;;;;;14.38;100.00;102775.13;5027146;28;19968;-58
2022/10/18 08:42:28;;;;;;;;;;;;;;;14.41;100.00;102772.97;5029022;28;20331;-59
2022/10/18 08:44:54;;;;;;;;;;;;;;;14.44;100.00;102771.88;5027665;28;19952;-59
2022/10/18 08:47:50;;;;;;;;;;;;;;;14.46;100.00;102781.47;5023979;28;20010;-59
2022/10/18 08:50:18;;;;;;;;;;;;;;;14.48;100.00;102782.16;5020589;28;20380;-59
2022/10/18 08:52:58;;;;;;;;;;;;;;;14.55;100.00;102779.72;5034120;28;19917;-59
2022/10/18 08:55:43;;;;;;;;;;;;;;;14.60;100.00;102769.41;5027796;28;19917;-58
2022/10/18 08:58:18;;;;;;;;;;;;;;;14.63;100.00;102774.44;5029668;28;19913;-59
2022/10/18 09:00:47;;;;;;;;;;;;;;;14.62;100.00;102777.28;5027910;28;20092;-59
2022/10/18 09:03:22;;;;;;;;;;;;;;;14.61;100.00;102791.63;5029941;28;20007;-58
2022/10/18 09:05:50;;;;;;;;;;;;;;;14.62;100.00;102782.63;5024434;28;20019;-59
2022/10/18 09:08:20;;;;;;;;;;;;;;;14.63;100.00;102779.78;5027917;28;20422;-59
2022/10/18 09:10:48;;;;;;;;;;;;;;;14.66;100.00;102784.00;5032957;28;20007;-59
2022/10/18 09:13:33;;;;;;;;;;;;;;;14.66;100.00;102790.19;5027768;28;20477;-59
2022/10/18 09:15:59;;;;;;;;;;;;;;;14.67;100.00;102799.91;5031148;28;19924;-59
2022/10/18 09:18:40;;;;;;;;;;;;;;;14.71;100.00;102789.75;5027880;28;19913;-59
2022/10/18 09:21:17;;;;;;;;;;;;;;;14.75;100.00;102788.47;5027755;28;19917;-59
2022/10/18 09:23:46;;;;;;;;;;;;;;;14.75;100.00;102778.63;5029333;28;20284;-59
2022/10/18 09:26:18;;;;;;;;;;;;;;;14.76;100.00;102784.81;5029421;28;19948;-59
2022/10/18 09:29:03;;;;;;;;;;;;;;;14.79;100.00;102789.84;5029761;28;19917;-59
2022/10/18 09:31:47;;;;;;;;;;;;;;;14.83;100.00;102788.56;5027011;28;19999;-58
2022/10/18 09:34:24;;;;;;;;;;;;;;;14.84;100.00;102783.06;5019460;28;19932;-58
2022/10/18 09:36:50;;;;;;;;;;;;;;;14.85;100.00;102786.56;5032646;28;19925;-59
2022/10/18 09:39:19;;;;;;;;;;;;;;;14.86;100.00;102783.75;5026317;28;19917;-58
2022/10/18 09:41:47;;;;;;;;;;;;;;;14.87;100.00;102788.09;5027432;28;19925;-59
2022/10/18 09:44:18;;;;;;;;;;;;;;;14.89;100.00;102790.63;5027015;28;19925;-59
2022/10/18 09:46:46;;;;;;;;;;;;;;;14.92;100.00;102781.44;5033433;28;19960;-57
2022/10/18 09:49:22;;;;;;;;;;;;;;;14.94;100.00;102791.00;5028957;28;19987;-58
2022/10/18 09:51:49;;;;;;;;;;;;;;;14.96;100.00;102794.38;5024090;28;19951;-58
2022/10/18 09:54:26;;;;;;;;;;;;;;;14.97;100.00;102800.56;5032018;28;19913;-58
2022/10/18 09:57:01;;;;;;;;;;;;;;;14.98;100.00;102792.38;5027666;28;20280;-59
2022/10/18 09:59:26;;;;;;;;;;;;;;;15.01;100.00;102784.03;5031242;28;19913;-58
2022/10/18 10:01:51;;;;;;;;;;;;;;;15.03;100.00;102784.72;5035136;28;19921;-59
2022/10/18 10:04:16;;;;;;;;;;;;;;;15.07;100.00;102791.50;5029975;28;19920;-59
2022/10/18 10:06:48;;;;;;;;;;;;;;;15.08;100.00;102790.50;5027182;28;19971;-59
2022/10/18 10:09:14;;;;;;;;;;;;;;;15.09;100.00;102794.84;5027981;28;19918;-59
2022/10/18 10:11:46;;;;;;;;;;;;;;;15.13;100.00;102803.41;5023819;28;19917;-58
2022/10/18 10:14:13;;;;;;;;;;;;;;;15.17;100.00;102794.91;5019360;28;19932;-58
2022/10/18 10:17:02;;;;;;;;;;;;;;;15.21;100.00;102791.94;5022206;28;19913;-59
2022/10/18 10:19:34;;;;;;;;;;;;;;;15.23;100.00;102800.66;5017419;28;20376;-58
2022/10/18 10:22:04;;;;;;;;;;;;;;;15.24;100.00;102811.19;5027213;28;19949;-58
2022/10/18 10:24:34;;;;;;;;;;;;;;;15.28;100.00;102823.28;5028519;28;19913;-59
2022/10/18 10:27:01;;;;;;;;;;;;;;;15.32;100.00;102805.91;5024155;28;19936;-58
2022/10/18 10:29:46;;;;;;;;;;;;;;;15.38;100.00;102813.34;5029662;28;19921;-59
2022/10/18 10:32:12;;;;;;;;;;;;;;;15.43;100.00;102816.41;5022187;28;19923;-59
2022/10/18 10:34:37;;;;;;;;;;;;;;;15.46;100.00;102817.94;5028266;28;19920;-59
2022/10/18 10:37:03;;;;;;;;;;;;;;;15.49;99.52;102825.66;5028263;28;20474;-59
2022/10/18 10:39:29;;;;;;;;;;;;;;;15.51;99.40;102826.34;5030307;28;19940;-59
2022/10/18 10:41:55;;;;;;;;;;;;;;;15.54;98.84;102831.38;5028264;28;20436;-59
2022/10/18 10:44:25;;;;;;;;;;;;;;;15.58;98.28;102829.22;5028605;28;20404;-59
2022/10/18 10:46:51;;;;;;;;;;;;;;;15.64;98.57;102839.38;5027134;28;21210;-59
2022/10/18 10:49:18;;;;;;;;;;;;;;;15.66;98.43;102835.56;5030750;28;19921;-58
2022/10/18 10:51:45;;;;;;;;;;;;;;;15.71;98.25;102838.59;5026141;28;19971;-59
2022/10/18 10:54:19;;;;;;;;;;;;;;;15.74;97.44;102830.25;5026222;28;19918;-58
2022/10/18 10:56:54;;;;;;;;;;;;;;;15.79;97.47;102833.28;5031359;28;19987;-58
2022/10/18 10:59:21;;;;;;;;;;;;;;;15.85;97.44;102830.97;5027621;28;19952;-58
2022/10/18 11:01:49;;;;;;;;;;;;;;;15.86;97.35;102835.34;5034586;28;19924;-59
2022/10/18 11:04:24;;;;;;;;;;;;;;;15.91;97.04;102830.38;5034333;28;20356;-59
2022/10/18 11:06:59;;;;;;;;;;;;;;;15.96;96.90;102833.44;5025623;28;19921;-59
2022/10/18 11:09:45;;;;;;;;;;;;;;;16.00;96.88;102834.78;5024956;28;19967;-59
2022/10/18 11:12:17;;;;;;;;;;;;;;;16.07;96.37;102846.56;4995502;28;19917;-58
2022/10/18 11:14:45;;;;;;;;;;;;;;;16.11;96.44;102851.44;5021167;28;20000;-57
2022/10/18 11:17:16;;;;;;;;;;;;;;;16.19;96.25;102844.44;5017151;28;20410;-58
2022/10/18 11:19:48;;;;;;;;;;;;;;;16.27;95.55;102844.50;5022465;28;19928;-58
2022/10/18 11:22:20;;;;;;;;;;;;;;;16.35;95.61;102833.81;5027496;28;19917;-57
2022/10/18 11:24:45;;;;;;;;;;;;;;;16.43;95.71;102829.31;5029467;28;20012;-58
2022/10/18 11:27:19;;;;;;;;;;;;;;;16.54;94.99;102833.59;5028356;28;20367;-59
2022/10/18 11:29:53;;;;;;;;;;;;;;;16.65;94.29;102835.97;5029396;28;19924;-59
2022/10/18 11:32:27;;;;;;;;;;;;;;;16.75;93.39;102835.84;5023401;28;20300;-59
2022/10/18 11:34:52;;;;;;;;;;;;;;;16.86;93.09;102835.56;5025771;28;20417;-59
2022/10/18 11:37:27;;;;;;;;;;;;;;;16.99;92.13;102827.03;5031273;28;20000;-59
2022/10/18 11:40:14;;;;;;;;;;;;;;;17.11;92.20;102830.28;5022707;28;20375;-59
2022/10/18 11:42:49;;;;;;;;;;;;;;;17.20;91.36;102829.28;5027652;28;20325;-59
2022/10/18 11:45:21;;;;;;;;;;;;;;;17.23;89.80;102826.25;5030561;28;20384;-59
2022/10/18 11:47:52;;;;;;;;;;;;;;;17.27;88.53;102828.44;5028721;28;20003;-59
2022/10/18 11:50:17;;;;;;;;;;;;;;;17.36;88.72;102833.84;5025229;28;19921;-58
2022/10/18 11:52:54;;;;;;;;;;;;;;;17.44;88.62;102833.84;5029726;28;19921;-59
2022/10/18 11:55:23;;;;;;;;;;;;;;;17.48;86.45;102825.28;5025847;28;19917;-59
2022/10/18 11:57:48;;;;;;;;;;;;;;;17.54;86.12;102827.28;5026183;28;19917;-59
2022/10/18 12:00:22;;;;;;;;;;;;;;;17.62;86.92;102826.44;5026054;28;19928;-59
2022/10/18 12:03:02;;;;;;;;;;;;;;;17.67;86.41;102831.31;5031401;28;20008;-59
2022/10/18 12:05:28;;;;;;;;;;;;;;;17.72;86.10;102826.31;5030793;28;19917;-59
2022/10/18 12:08:04;;;;;;;;;;;;;;;17.79;86.33;102817.38;5031313;28;19917;-59
2022/10/18 12:10:30;;;;;;;;;;;;;;;17.80;84.75;102808.31;5021440;28;20000;-59
2022/10/18 12:13:00;;;;;;;;;;;;;;;17.78;84.67;102818.41;5022195;28;19917;-59
2022/10/18 12:15:26;;;;;;;;;;;;;;;17.83;84.69;102823.25;5027688;28;19953;-59
2022/10/18 12:17:58;;;;;;;;;;;;;;;17.90;83.64;102818.88;5029812;28;20002;-59
2022/10/18 12:20:29;;;;;;;;;;;;;;;17.99;82.79;102809.81;5031919;28;19916;-59
2022/10/18 12:22:59;;;;;;;;;;;;;;;18.03;81.63;102805.75;5031543;28;20071;-58
2022/10/18 12:25:26;;;;;;;;;;;;;;;18.17;81.36;102812.25;5026872;28;19967;-59
2022/10/18 12:27:54;;;;;;;;;;;;;;;18.21;81.07;102801.00;5024592;28;19921;-59
2022/10/18 12:30:25;;;;;;;;;;;;;;;18.39;80.91;102805.31;5028187;28;19986;-59